createdAt,value
2018-11-01T00:00:00.720Z,0.00
2018-11-01T00:01:00.697Z,0.00
2018-11-01T00:02:00.661Z,0.00
2018-11-01T00:03:00.639Z,0.00
2018-11-01T00:04:00.602Z,0.00
2018-11-01T00:05:00.574Z,0.00
2018-11-01T00:06:00.546Z,0.00
2018-11-01T00:07:00.512Z,0.00
2018-11-01T00:08:00.486Z,0.00
2018-11-01T00:09:00.458Z,0.00
2018-11-01T00:10:00.427Z,0.00
2018-11-01T00:11:00.400Z,0.00
2018-11-01T00:12:00.367Z,0.00
2018-11-01T00:13:00.350Z,0.00
2018-11-01T00:14:00.308Z,0.00
2018-11-01T00:15:00.282Z,0.00
2018-11-01T00:16:00.251Z,0.00
2018-11-01T00:17:00.221Z,0.00
2018-11-01T00:18:00.194Z,0.00
2018-11-01T00:19:00.164Z,0.00
2018-11-01T00:20:00.134Z,0.00
2018-11-01T00:21:00.308Z,0.00
2018-11-01T00:22:00.078Z,0.00
2018-11-01T00:23:00.048Z,0.00
2018-11-01T00:24:00.017Z,0.00
2018-11-01T00:24:59.995Z,0.00
2018-11-01T00:25:59.957Z,0.00
2018-11-01T00:26:59.927Z,0.00
2018-11-01T00:27:59.899Z,0.00
2018-11-01T00:28:59.873Z,0.00
2018-11-01T00:29:59.842Z,0.00
2018-11-01T00:30:59.811Z,0.00
2018-11-01T00:31:59.788Z,0.00
2018-11-01T00:32:59.753Z,0.00
2018-11-01T00:33:59.724Z,0.00
2018-11-01T00:34:59.696Z,0.00
2018-11-01T00:35:59.669Z,0.00
2018-11-01T00:36:59.637Z,0.00
2018-11-01T00:37:59.605Z,0.00
2018-11-01T00:38:59.576Z,0.00
2018-11-01T00:39:59.549Z,0.00
2018-11-01T00:40:59.519Z,0.00
2018-11-01T00:41:59.494Z,0.00
2018-11-01T00:42:59.467Z,0.00
2018-11-01T00:43:59.430Z,0.00
2018-11-01T00:44:59.402Z,0.00
2018-11-01T00:45:59.375Z,0.00
2018-11-01T00:46:59.342Z,0.00
2018-11-01T00:47:59.317Z,0.00
2018-11-01T00:48:59.285Z,0.00
2018-11-01T00:49:59.254Z,0.00
2018-11-01T00:50:59.226Z,0.00
2018-11-01T00:51:59.202Z,0.00
2018-11-01T00:52:59.172Z,0.00
2018-11-01T00:53:59.143Z,0.00
2018-11-01T00:54:59.111Z,0.00
2018-11-01T00:55:59.104Z,0.00
2018-11-01T00:56:59.051Z,0.00
2018-11-01T00:57:59.020Z,0.00
2018-11-01T00:58:58.991Z,0.00
2018-11-01T00:59:58.964Z,0.00
2018-11-01T01:00:58.935Z,0.00
2018-11-01T01:01:58.904Z,0.00
2018-11-01T01:02:58.876Z,0.00
2018-11-01T01:03:58.847Z,0.00
2018-11-01T01:04:58.818Z,0.00
2018-11-01T01:05:58.787Z,0.00
2018-11-01T01:06:58.759Z,0.00
2018-11-01T01:07:58.728Z,0.00
2018-11-01T01:08:58.698Z,0.00
2018-11-01T01:09:58.681Z,0.00
2018-11-01T01:10:58.842Z,0.00
2018-11-01T01:11:58.622Z,0.00
2018-11-01T01:12:58.596Z,0.00
2018-11-01T01:13:58.551Z,0.00
2018-11-01T01:14:58.524Z,0.00
2018-11-01T01:15:58.491Z,0.00
2018-11-01T01:16:58.467Z,0.00
2018-11-01T01:17:58.436Z,0.00
2018-11-01T01:18:58.463Z,0.00
2018-11-01T01:19:58.374Z,0.00
2018-11-01T01:20:58.345Z,0.00
2018-11-01T01:21:58.365Z,0.00
2018-11-01T01:22:58.286Z,0.00
2018-11-01T01:23:58.258Z,0.00
2018-11-01T01:24:58.232Z,0.00
2018-11-01T01:25:58.199Z,0.00
2018-11-01T01:26:58.169Z,0.00
2018-11-01T01:27:58.139Z,0.00
2018-11-01T01:28:58.110Z,0.00
2018-11-01T01:29:58.078Z,0.00
2018-11-01T01:30:58.051Z,0.00
2018-11-01T01:31:58.024Z,0.00
2018-11-01T01:32:57.997Z,0.00
2018-11-01T01:33:57.964Z,0.00
2018-11-01T01:34:57.934Z,0.00
2018-11-01T01:35:57.911Z,0.00
2018-11-01T01:36:57.876Z,0.00
2018-11-01T01:37:57.847Z,0.00
2018-11-01T01:38:57.823Z,0.00
2018-11-01T01:39:57.787Z,0.00
2018-11-01T01:40:57.758Z,0.00
2018-11-01T01:41:57.728Z,0.00
2018-11-01T01:42:57.699Z,0.00
2018-11-01T01:43:57.672Z,0.00
2018-11-01T01:44:57.641Z,0.00
2018-11-01T01:45:57.611Z,0.00
2018-11-01T01:46:57.585Z,0.00
2018-11-01T01:47:57.556Z,0.00
2018-11-01T01:48:57.523Z,0.00
2018-11-01T01:49:57.492Z,0.00
2018-11-01T01:50:57.466Z,0.00
2018-11-01T01:51:57.435Z,0.00
2018-11-01T01:52:57.406Z,0.00
2018-11-01T01:53:57.380Z,0.00
2018-11-01T01:54:57.346Z,0.00
2018-11-01T01:55:57.319Z,0.00
2018-11-01T01:56:57.290Z,0.00
2018-11-01T01:57:57.261Z,0.00
2018-11-01T01:58:57.229Z,0.00
2018-11-01T01:59:57.199Z,0.00
2018-11-01T02:00:57.172Z,0.00
2018-11-01T02:01:57.141Z,0.00
2018-11-01T02:02:57.112Z,0.00
2018-11-01T02:03:57.083Z,0.00
2018-11-01T02:04:57.055Z,0.00
2018-11-01T02:05:57.027Z,0.00
2018-11-01T02:06:56.996Z,0.00
2018-11-01T02:07:56.964Z,0.00
2018-11-01T02:08:56.936Z,0.00
2018-11-01T02:09:56.906Z,0.00
2018-11-01T02:10:56.877Z,0.00
2018-11-01T02:11:56.913Z,0.00
2018-11-01T02:12:56.826Z,0.00
2018-11-01T02:13:56.793Z,0.00
2018-11-01T02:14:56.762Z,0.00
2018-11-01T02:15:56.732Z,0.00
2018-11-01T02:16:56.704Z,0.00
2018-11-01T02:17:56.671Z,0.00
2018-11-01T02:18:56.641Z,0.00
2018-11-01T02:19:56.616Z,0.00
2018-11-01T02:20:56.585Z,0.00
2018-11-01T02:21:56.557Z,0.00
2018-11-01T02:22:56.527Z,0.00
2018-11-01T02:23:56.501Z,0.00
2018-11-01T02:24:56.469Z,0.00
2018-11-01T02:25:56.439Z,0.00
2018-11-01T02:26:56.409Z,0.00
2018-11-01T02:27:56.384Z,0.00
2018-11-01T02:28:56.349Z,0.00
2018-11-01T02:29:56.321Z,0.00
2018-11-01T02:30:56.290Z,0.00
2018-11-01T02:31:56.265Z,0.00
2018-11-01T02:32:56.235Z,0.00
2018-11-01T02:33:56.204Z,0.00
2018-11-01T02:34:56.176Z,0.00
2018-11-01T02:35:56.144Z,0.00
2018-11-01T02:36:56.119Z,0.00
2018-11-01T02:37:56.130Z,0.00
2018-11-01T02:38:56.058Z,0.00
2018-11-01T02:39:56.045Z,0.00
2018-11-01T02:40:55.997Z,0.00
2018-11-01T02:41:55.968Z,0.00
2018-11-01T02:42:55.938Z,0.00
2018-11-01T02:43:55.912Z,0.00
2018-11-01T02:44:55.883Z,0.00
2018-11-01T02:45:55.853Z,0.00
2018-11-01T02:46:55.831Z,0.00
2018-11-01T02:47:55.791Z,0.00
2018-11-01T02:48:55.764Z,0.00
2018-11-01T02:49:55.733Z,0.00
2018-11-01T02:50:55.704Z,0.00
2018-11-01T02:51:55.689Z,0.00
2018-11-01T02:52:55.648Z,0.00
2018-11-01T02:53:55.636Z,0.00
2018-11-01T02:54:55.590Z,0.00
2018-11-01T02:55:55.567Z,0.00
2018-11-01T02:56:55.532Z,0.00
2018-11-01T02:57:55.503Z,0.00
2018-11-01T02:58:55.472Z,0.00
2018-11-01T02:59:55.593Z,0.00
2018-11-01T03:00:55.413Z,0.00
2018-11-01T03:01:55.382Z,0.00
2018-11-01T03:02:55.355Z,0.00
2018-11-01T03:03:55.328Z,0.00
2018-11-01T03:04:55.307Z,0.00
2018-11-01T03:05:55.268Z,0.00
2018-11-01T03:06:55.238Z,0.00
2018-11-01T03:07:55.214Z,0.00
2018-11-01T03:08:55.182Z,0.00
2018-11-01T03:09:55.151Z,0.00
2018-11-01T03:10:55.121Z,0.00
2018-11-01T03:11:55.091Z,0.00
2018-11-01T03:12:55.062Z,0.00
2018-11-01T03:13:55.035Z,0.00
2018-11-01T03:14:55.004Z,0.00
2018-11-01T03:15:54.976Z,0.00
2018-11-01T03:16:55.018Z,0.00
2018-11-01T03:17:54.917Z,0.00
2018-11-01T03:18:54.887Z,0.00
2018-11-01T03:19:54.858Z,0.00
2018-11-01T03:20:54.832Z,0.00
2018-11-01T03:21:54.798Z,0.00
2018-11-01T03:22:54.770Z,0.00
2018-11-01T03:23:54.745Z,0.00
2018-11-01T03:24:54.716Z,0.00
2018-11-01T03:25:54.686Z,0.00
2018-11-01T03:26:54.655Z,0.00
2018-11-01T03:27:54.627Z,0.00
2018-11-01T03:28:54.602Z,0.00
2018-11-01T03:29:54.567Z,0.00
2018-11-01T03:30:54.538Z,0.00
2018-11-01T03:31:54.508Z,0.00
2018-11-01T03:32:54.479Z,0.00
2018-11-01T03:33:54.447Z,0.00
2018-11-01T03:34:54.421Z,0.00
2018-11-01T03:35:54.395Z,0.00
2018-11-01T03:36:54.363Z,0.00
2018-11-01T03:37:54.331Z,0.00
2018-11-01T03:38:54.402Z,0.00
2018-11-01T03:39:54.272Z,0.00
2018-11-01T03:40:54.248Z,0.00
2018-11-01T03:41:54.213Z,0.00
2018-11-01T03:42:54.187Z,0.00
2018-11-01T03:43:54.157Z,0.00
2018-11-01T03:44:54.126Z,0.00
2018-11-01T03:45:54.095Z,0.00
2018-11-01T03:46:54.272Z,0.00
2018-11-01T03:47:54.065Z,0.00
2018-11-01T03:48:54.011Z,0.00
2018-11-01T03:49:53.989Z,0.00
2018-11-01T03:50:53.951Z,0.00
2018-11-01T03:51:54.021Z,0.00
2018-11-01T03:52:53.890Z,0.00
2018-11-01T03:53:53.891Z,0.00
2018-11-01T03:54:53.832Z,0.00
2018-11-01T03:55:53.805Z,0.00
2018-11-01T03:56:53.776Z,0.00
2018-11-01T03:57:53.747Z,0.00
2018-11-01T03:58:53.716Z,0.00
2018-11-01T03:59:53.689Z,0.00
2018-11-01T04:00:53.661Z,0.00
2018-11-01T04:01:53.629Z,0.00
2018-11-01T04:02:53.603Z,0.00
2018-11-01T04:03:53.619Z,0.00
2018-11-01T04:04:53.540Z,0.00
2018-11-01T04:05:53.508Z,0.00
2018-11-01T04:06:53.482Z,0.00
2018-11-01T04:07:53.452Z,0.00
2018-11-01T04:08:53.423Z,0.00
2018-11-01T04:09:53.392Z,0.00
2018-11-01T04:10:53.366Z,0.00
2018-11-01T04:11:53.332Z,0.00
2018-11-01T04:12:53.308Z,0.00
2018-11-01T04:13:53.361Z,0.00
2018-11-01T04:14:53.270Z,0.00
2018-11-01T04:15:53.419Z,0.00
2018-11-01T04:16:53.342Z,0.00
2018-11-01T04:17:53.158Z,0.00
2018-11-01T04:18:53.127Z,0.00
2018-11-01T04:19:53.098Z,0.00
2018-11-01T04:20:53.065Z,0.00
2018-11-01T04:21:53.038Z,0.00
2018-11-01T04:22:53.009Z,0.00
2018-11-01T04:23:52.986Z,0.00
2018-11-01T04:24:52.950Z,0.00
2018-11-01T04:25:52.920Z,0.00
2018-11-01T04:26:52.890Z,0.00
2018-11-01T04:27:52.918Z,0.00
2018-11-01T04:28:52.846Z,0.00
2018-11-01T04:29:52.801Z,0.00
2018-11-01T04:30:52.769Z,0.00
2018-11-01T04:31:52.740Z,0.00
2018-11-01T04:32:52.744Z,0.00
2018-11-01T04:33:52.776Z,0.00
2018-11-01T04:34:52.700Z,0.00
2018-11-01T04:35:52.623Z,0.00
2018-11-01T04:36:52.596Z,0.00
2018-11-01T04:37:52.563Z,0.00
2018-11-01T04:38:52.533Z,0.00
2018-11-01T04:39:52.502Z,0.00
2018-11-01T04:40:52.472Z,0.00
2018-11-01T04:41:52.442Z,0.00
2018-11-01T04:42:52.425Z,0.00
2018-11-01T04:43:52.384Z,0.00
2018-11-01T04:44:52.394Z,0.00
2018-11-01T04:45:52.324Z,0.00
2018-11-01T04:46:52.306Z,0.00
2018-11-01T04:47:52.297Z,0.00
2018-11-01T04:48:52.235Z,0.00
2018-11-01T04:49:52.205Z,0.00
2018-11-01T04:50:52.175Z,0.00
2018-11-01T04:51:52.143Z,0.00
2018-11-01T04:52:52.116Z,0.00
2018-11-01T04:53:52.083Z,0.00
2018-11-01T04:54:52.053Z,0.00
2018-11-01T04:55:52.028Z,0.00
2018-11-01T04:56:51.995Z,0.00
2018-11-01T04:57:51.964Z,0.00
2018-11-01T04:58:51.933Z,0.00
2018-11-01T04:59:51.903Z,0.00
2018-11-01T05:00:51.872Z,0.00
2018-11-01T05:01:51.841Z,0.00
2018-11-01T05:02:51.814Z,0.00
2018-11-01T05:03:51.784Z,0.00
2018-11-01T05:04:51.769Z,0.00
2018-11-01T05:05:51.731Z,0.00
2018-11-01T05:06:51.701Z,0.00
2018-11-01T05:07:51.666Z,0.00
2018-11-01T05:08:51.635Z,0.00
2018-11-01T05:09:51.606Z,0.00
2018-11-01T05:10:51.577Z,0.00
2018-11-01T05:11:51.546Z,0.00
2018-11-01T05:12:51.524Z,0.00
2018-11-01T05:13:51.481Z,0.00
2018-11-01T05:14:51.463Z,0.00
2018-11-01T05:15:51.425Z,0.00
2018-11-01T05:16:51.393Z,0.00
2018-11-01T05:17:51.366Z,0.00
2018-11-01T05:18:51.333Z,0.00
2018-11-01T05:19:51.300Z,0.00
2018-11-01T05:20:51.271Z,0.00
2018-11-01T05:21:51.241Z,0.00
2018-11-01T05:22:51.210Z,0.00
2018-11-01T05:23:51.181Z,0.00
2018-11-01T05:24:51.160Z,0.00
2018-11-01T05:25:51.212Z,0.00
2018-11-01T05:26:51.092Z,0.00
2018-11-01T05:27:51.072Z,0.00
2018-11-01T05:28:51.029Z,0.00
2018-11-01T05:29:50.997Z,0.00
2018-11-01T05:30:50.970Z,0.00
2018-11-01T05:31:50.940Z,0.00
2018-11-01T05:32:50.911Z,0.00
2018-11-01T05:33:50.880Z,0.00
2018-11-01T05:34:50.850Z,0.00
2018-11-01T05:35:50.820Z,0.00
2018-11-01T05:36:50.792Z,0.00
2018-11-01T05:37:50.765Z,4.00
2018-11-01T05:38:50.731Z,4.00
2018-11-01T05:39:50.698Z,4.00
2018-11-01T05:40:50.667Z,0.00
2018-11-01T05:41:50.640Z,0.00
2018-11-01T05:42:50.607Z,4.00
2018-11-01T05:43:50.579Z,4.00
2018-11-01T05:44:50.549Z,4.00
2018-11-01T05:45:50.518Z,4.00
2018-11-01T05:46:50.489Z,4.00
2018-11-01T05:47:50.464Z,8.00
2018-11-01T05:48:50.427Z,8.00
2018-11-01T05:49:50.401Z,12.00
2018-11-01T05:50:50.367Z,12.00
2018-11-01T05:51:50.373Z,16.00
2018-11-01T05:52:50.308Z,16.00
2018-11-01T05:53:50.277Z,20.00
2018-11-01T05:54:50.249Z,20.00
2018-11-01T05:55:50.231Z,28.00
2018-11-01T05:56:50.191Z,32.00
2018-11-01T05:57:50.161Z,36.00
2018-11-01T05:58:50.130Z,48.00
2018-11-01T05:59:50.142Z,52.00
2018-11-01T06:00:50.075Z,60.00
2018-11-01T06:01:50.039Z,68.00
2018-11-01T06:02:50.009Z,80.00
2018-11-01T06:03:49.989Z,88.00
2018-11-01T06:04:49.957Z,100.00
2018-11-01T06:05:49.924Z,116.00
2018-11-01T06:06:49.895Z,128.00
2018-11-01T06:07:49.863Z,148.00
2018-11-01T06:08:49.836Z,160.00
2018-11-01T06:09:49.804Z,184.00
2018-11-01T06:10:49.773Z,204.00
2018-11-01T06:11:49.751Z,228.00
2018-11-01T06:12:49.713Z,248.00
2018-11-01T06:13:49.684Z,272.00
2018-11-01T06:14:49.654Z,296.00
2018-11-01T06:15:49.630Z,324.00
2018-11-01T06:16:49.593Z,356.00
2018-11-01T06:17:49.562Z,388.00
2018-11-01T06:18:49.536Z,424.00
2018-11-01T06:19:49.503Z,464.00
2018-11-01T06:20:49.578Z,512.00
2018-11-01T06:21:49.443Z,568.00
2018-11-01T06:22:49.416Z,632.00
2018-11-01T06:23:49.388Z,704.00
2018-11-01T06:24:49.364Z,784.00
2018-11-01T06:25:49.339Z,876.00
2018-11-01T06:26:49.294Z,984.00
2018-11-01T06:27:49.263Z,1108.00
2018-11-01T06:28:49.235Z,1252.00
2018-11-01T06:29:49.203Z,1408.00
2018-11-01T06:30:49.174Z,1576.00
2018-11-01T06:31:49.147Z,1756.00
2018-11-01T06:32:49.117Z,1944.00
2018-11-01T06:33:49.086Z,2140.00
2018-11-01T06:34:49.057Z,2320.00
2018-11-01T06:35:49.025Z,2520.00
2018-11-01T06:36:48.996Z,2720.00
2018-11-01T06:37:48.965Z,2924.00
2018-11-01T06:38:48.935Z,3012.00
2018-11-01T06:39:48.912Z,3180.00
2018-11-01T06:40:48.876Z,3188.00
2018-11-01T06:41:48.846Z,3292.00
2018-11-01T06:42:48.816Z,3320.00
2018-11-01T06:43:48.789Z,3512.00
2018-11-01T06:44:48.786Z,3720.00
2018-11-01T06:45:48.728Z,3728.00
2018-11-01T06:46:48.699Z,3760.00
2018-11-01T06:47:48.668Z,3860.00
2018-11-01T06:48:48.639Z,4060.00
2018-11-01T06:49:48.609Z,4232.00
2018-11-01T06:50:48.581Z,4264.00
2018-11-01T06:51:48.552Z,4144.00
2018-11-01T06:52:48.724Z,4212.00
2018-11-01T06:53:48.492Z,4636.00
2018-11-01T06:54:48.464Z,5160.00
2018-11-01T06:55:48.435Z,5360.00
2018-11-01T06:56:48.406Z,5508.00
2018-11-01T06:57:48.378Z,5624.00
2018-11-01T06:58:48.407Z,5856.00
2018-11-01T06:59:48.320Z,6160.00
2018-11-01T07:00:48.287Z,6524.00
2018-11-01T07:01:48.265Z,6836.00
2018-11-01T07:02:48.229Z,7124.00
2018-11-01T07:03:48.203Z,7428.00
2018-11-01T07:04:48.173Z,7744.00
2018-11-01T07:05:48.313Z,8176.00
2018-11-01T07:06:48.117Z,8620.00
2018-11-01T07:07:48.086Z,8892.00
2018-11-01T07:08:48.060Z,9120.00
2018-11-01T07:09:48.029Z,9340.00
2018-11-01T07:10:48.000Z,9608.00
2018-11-01T07:11:47.969Z,9748.00
2018-11-01T07:12:47.942Z,9944.00
2018-11-01T07:13:47.913Z,10216.00
2018-11-01T07:14:47.884Z,10740.00
2018-11-01T07:15:47.863Z,11324.00
2018-11-01T07:16:47.921Z,11872.00
2018-11-01T07:17:48.002Z,12192.00
2018-11-01T07:18:47.772Z,12076.00
2018-11-01T07:19:47.744Z,12076.00
2018-11-01T07:20:47.715Z,12500.00
2018-11-01T07:21:47.687Z,13100.00
2018-11-01T07:22:47.658Z,13416.00
2018-11-01T07:23:47.632Z,13568.00
2018-11-01T07:24:47.611Z,14108.00
2018-11-01T07:25:47.672Z,15136.00
2018-11-01T07:26:47.549Z,15776.00
2018-11-01T07:27:47.523Z,16160.00
2018-11-01T07:28:47.509Z,16448.00
2018-11-01T07:29:47.465Z,16512.00
2018-11-01T07:30:47.440Z,16064.00
2018-11-01T07:31:47.418Z,15520.00
2018-11-01T07:32:47.699Z,14712.00
2018-11-01T07:33:47.354Z,14644.00
2018-11-01T07:34:47.325Z,14624.00
2018-11-01T07:35:47.302Z,14976.00
2018-11-01T07:36:47.274Z,15136.00
2018-11-01T07:37:47.247Z,14880.00
2018-11-01T07:38:47.223Z,16352.00
2018-11-01T07:39:47.212Z,17184.00
2018-11-01T07:40:47.163Z,17600.00
2018-11-01T07:41:47.134Z,18304.00
2018-11-01T07:42:47.109Z,18944.00
2018-11-01T07:43:47.080Z,18976.00
2018-11-01T07:44:47.255Z,18560.00
2018-11-01T07:45:47.229Z,18688.00
2018-11-01T07:46:47.200Z,18944.00
2018-11-01T07:47:47.225Z,19296.00
2018-11-01T07:48:47.260Z,19136.00
2018-11-01T07:49:50.349Z,19136.00
2018-11-01T07:50:47.094Z,19168.00
2018-11-01T07:51:46.862Z,20160.00
2018-11-01T07:52:46.843Z,20576.00
2018-11-01T07:53:46.817Z,20352.00
2018-11-01T07:54:46.983Z,20736.00
2018-11-01T07:55:46.764Z,20128.00
2018-11-01T07:56:46.742Z,21280.00
2018-11-01T07:57:46.904Z,21472.00
2018-11-01T07:58:46.877Z,21216.00
2018-11-01T07:59:46.853Z,21216.00
2018-11-01T08:00:46.622Z,21248.00
2018-11-01T08:01:46.626Z,21152.00
2018-11-01T08:02:46.583Z,18912.00
2018-11-01T08:03:46.540Z,17728.00
2018-11-01T08:04:46.514Z,17504.00
2018-11-01T08:05:46.530Z,17248.00
2018-11-01T08:06:46.461Z,16992.00
2018-11-01T08:07:46.448Z,16768.00
2018-11-01T08:08:46.414Z,16416.00
2018-11-01T08:09:46.382Z,15424.00
2018-11-01T08:10:46.358Z,14900.00
2018-11-01T08:11:46.405Z,14600.00
2018-11-01T08:12:46.318Z,13916.00
2018-11-01T08:13:46.284Z,13504.00
2018-11-01T08:14:46.251Z,13352.00
2018-11-01T08:15:46.224Z,12844.00
2018-11-01T08:16:46.198Z,13072.00
2018-11-01T08:17:46.174Z,13704.00
2018-11-01T08:18:46.146Z,14088.00
2018-11-01T08:19:46.209Z,14308.00
2018-11-01T08:20:46.199Z,14900.00
2018-11-01T08:21:46.069Z,16000.00
2018-11-01T08:22:46.042Z,16064.00
2018-11-01T08:23:46.015Z,17024.00
2018-11-01T08:24:45.990Z,17024.00
2018-11-01T08:25:45.962Z,17376.00
2018-11-01T08:26:45.937Z,17824.00
2018-11-01T08:27:45.939Z,17376.00
2018-11-01T08:28:45.890Z,18944.00
2018-11-01T08:29:45.863Z,19552.00
2018-11-01T08:30:45.835Z,20736.00
2018-11-01T08:31:45.810Z,22272.00
2018-11-01T08:32:45.789Z,22336.00
2018-11-01T08:33:45.754Z,22880.00
2018-11-01T08:34:45.729Z,23904.00
2018-11-01T08:35:45.709Z,24416.00
2018-11-01T08:36:45.679Z,25248.00
2018-11-01T08:37:45.658Z,26592.00
2018-11-01T08:38:45.628Z,27040.00
2018-11-01T08:39:45.599Z,27264.00
2018-11-01T08:40:45.574Z,28768.00
2018-11-01T08:41:45.555Z,29696.00
2018-11-01T08:42:45.527Z,29440.00
2018-11-01T08:43:45.501Z,28928.00
2018-11-01T08:44:45.477Z,28320.00
2018-11-01T08:45:45.449Z,27328.00
2018-11-01T08:46:45.425Z,28192.00
2018-11-01T08:47:45.402Z,27776.00
2018-11-01T08:48:45.375Z,27584.00
2018-11-01T08:49:45.351Z,26464.00
2018-11-01T08:50:45.329Z,21536.00
2018-11-01T08:51:45.298Z,20864.00
2018-11-01T08:52:45.278Z,21696.00
2018-11-01T08:53:45.252Z,23904.00
2018-11-01T08:54:45.224Z,21984.00
2018-11-01T08:55:45.200Z,20992.00
2018-11-01T08:56:45.177Z,21568.00
2018-11-01T08:57:45.154Z,21280.00
2018-11-01T08:58:45.136Z,20864.00
2018-11-01T08:59:45.101Z,21152.00
2018-11-01T09:00:45.078Z,20224.00
2018-11-01T09:01:45.052Z,21280.00
2018-11-01T09:02:45.028Z,22528.00
2018-11-01T09:03:45.003Z,22560.00
2018-11-01T09:04:44.983Z,20832.00
2018-11-01T09:05:44.952Z,21024.00
2018-11-01T09:06:44.927Z,21536.00
2018-11-01T09:07:45.206Z,21888.00
2018-11-01T09:08:44.881Z,22528.00
2018-11-01T09:09:44.854Z,22944.00
2018-11-01T09:10:44.830Z,21984.00
2018-11-01T09:11:44.804Z,20672.00
2018-11-01T09:12:44.860Z,21024.00
2018-11-01T09:13:44.753Z,22144.00
2018-11-01T09:14:44.737Z,23232.00
2018-11-01T09:15:44.706Z,24384.00
2018-11-01T09:16:44.681Z,25056.00
2018-11-01T09:17:44.703Z,25856.00
2018-11-01T09:18:44.634Z,26560.00
2018-11-01T09:19:44.605Z,26752.00
2018-11-01T09:20:44.590Z,22144.00
2018-11-01T09:21:44.558Z,22784.00
2018-11-01T09:22:44.539Z,23904.00
2018-11-01T09:23:44.508Z,22048.00
2018-11-01T09:24:44.481Z,19648.00
2018-11-01T09:25:44.455Z,20576.00
2018-11-01T09:26:44.460Z,21888.00
2018-11-01T09:27:44.407Z,21568.00
2018-11-01T09:28:44.384Z,17856.00
2018-11-01T09:29:44.358Z,23072.00
2018-11-01T09:30:44.333Z,24896.00
2018-11-01T09:31:44.315Z,25792.00
2018-11-01T09:32:44.284Z,26080.00
2018-11-01T09:33:44.256Z,28544.00
2018-11-01T09:34:44.233Z,29056.00
2018-11-01T09:35:44.307Z,30048.00
2018-11-01T09:36:44.182Z,28960.00
2018-11-01T09:37:44.161Z,26304.00
2018-11-01T09:38:44.132Z,24416.00
2018-11-01T09:39:44.108Z,24064.00
2018-11-01T09:40:44.084Z,24800.00
2018-11-01T09:41:44.058Z,28544.00
2018-11-01T09:42:44.033Z,30048.00
2018-11-01T09:43:44.007Z,30912.00
2018-11-01T09:44:43.984Z,29216.00
2018-11-01T09:45:43.956Z,29792.00
2018-11-01T09:46:44.302Z,29536.00
2018-11-01T09:47:44.227Z,23360.00
2018-11-01T09:48:43.882Z,25024.00
2018-11-01T09:49:43.856Z,24128.00
2018-11-01T09:50:43.832Z,22816.00
2018-11-01T09:51:43.823Z,21504.00
2018-11-01T09:52:43.788Z,20896.00
2018-11-01T09:53:43.760Z,20544.00
2018-11-01T09:54:43.733Z,20000.00
2018-11-01T09:55:43.832Z,20480.00
2018-11-01T09:56:43.680Z,20896.00
2018-11-01T09:57:43.654Z,19424.00
2018-11-01T09:58:43.629Z,18592.00
2018-11-01T09:59:43.606Z,18688.00
2018-11-01T10:00:43.586Z,18496.00
2018-11-01T10:01:43.558Z,18272.00
2018-11-01T10:02:43.530Z,18272.00
2018-11-01T10:03:43.509Z,18016.00
2018-11-01T10:04:43.477Z,17920.00
2018-11-01T10:05:43.451Z,17888.00
2018-11-01T10:06:43.435Z,17888.00
2018-11-01T10:07:43.400Z,18112.00
2018-11-01T10:08:43.381Z,18304.00
2018-11-01T10:09:43.349Z,18560.00
2018-11-01T10:10:43.323Z,18784.00
2018-11-01T10:11:43.300Z,18976.00
2018-11-01T10:12:43.277Z,19168.00
2018-11-01T10:13:43.260Z,19296.00
2018-11-01T10:14:43.222Z,19488.00
2018-11-01T10:15:43.360Z,19680.00
2018-11-01T10:16:43.305Z,19712.00
2018-11-01T10:17:43.629Z,19936.00
2018-11-01T10:18:43.116Z,20448.00
2018-11-01T10:19:43.100Z,20256.00
2018-11-01T10:20:43.069Z,20352.00
2018-11-01T10:21:43.105Z,20192.00
2018-11-01T10:22:43.225Z,20128.00
2018-11-01T10:23:42.992Z,20160.00
2018-11-01T10:24:42.970Z,20384.00
2018-11-01T10:25:42.939Z,20480.00
2018-11-01T10:26:42.910Z,20704.00
2018-11-01T10:27:42.989Z,20800.00
2018-11-01T10:28:42.861Z,21120.00
2018-11-01T10:29:42.830Z,21248.00
2018-11-01T10:30:42.804Z,21600.00
2018-11-01T10:31:42.779Z,21696.00
2018-11-01T10:32:42.765Z,22144.00
2018-11-01T10:33:42.765Z,22944.00
2018-11-01T10:34:42.701Z,23328.00
2018-11-01T10:35:42.678Z,23648.00
2018-11-01T10:36:42.653Z,24224.00
2018-11-01T10:37:42.623Z,24320.00
2018-11-01T10:38:42.602Z,24576.00
2018-11-01T10:39:42.575Z,24480.00
2018-11-01T10:40:42.569Z,24832.00
2018-11-01T10:41:42.521Z,25664.00
2018-11-01T10:42:42.497Z,26112.00
2018-11-01T10:43:42.470Z,26400.00
2018-11-01T10:44:42.445Z,26368.00
2018-11-01T10:45:42.425Z,26112.00
2018-11-01T10:46:42.394Z,25920.00
2018-11-01T10:47:42.406Z,25984.00
2018-11-01T10:48:42.350Z,25920.00
2018-11-01T10:49:42.333Z,26048.00
2018-11-01T10:50:42.295Z,25984.00
2018-11-01T10:51:42.271Z,25600.00
2018-11-01T10:52:42.243Z,25696.00
2018-11-01T10:53:42.275Z,25280.00
2018-11-01T10:54:42.193Z,24832.00
2018-11-01T10:55:42.168Z,24672.00
2018-11-01T10:56:42.144Z,23744.00
2018-11-01T10:57:42.125Z,23616.00
2018-11-01T10:58:42.094Z,24384.00
2018-11-01T10:59:42.070Z,23872.00
2018-11-01T11:00:42.106Z,24224.00
2018-11-01T11:01:42.030Z,24192.00
2018-11-01T11:02:41.995Z,23776.00
2018-11-01T11:03:41.976Z,24288.00
2018-11-01T11:04:41.947Z,23584.00
2018-11-01T11:05:41.922Z,23680.00
2018-11-01T11:06:41.952Z,23936.00
2018-11-01T11:07:41.872Z,24256.00
2018-11-01T11:08:41.852Z,24448.00
2018-11-01T11:09:41.823Z,23904.00
2018-11-01T11:10:41.796Z,23776.00
2018-11-01T11:11:41.778Z,23808.00
2018-11-01T11:12:41.746Z,23168.00
2018-11-01T11:13:41.734Z,22880.00
2018-11-01T11:14:41.765Z,22560.00
2018-11-01T11:15:41.686Z,22368.00
2018-11-01T11:16:41.646Z,21952.00
2018-11-01T11:17:41.628Z,21600.00
2018-11-01T11:18:41.632Z,21280.00
2018-11-01T11:19:41.572Z,21088.00
2018-11-01T11:20:41.851Z,20768.00
2018-11-01T11:21:41.522Z,20448.00
2018-11-01T11:22:41.503Z,20256.00
2018-11-01T11:23:41.473Z,20064.00
2018-11-01T11:24:41.445Z,19872.00
2018-11-01T11:25:41.419Z,19776.00
2018-11-01T11:26:41.393Z,19712.00
2018-11-01T11:27:41.369Z,19648.00
2018-11-01T11:28:41.346Z,19680.00
2018-11-01T11:29:41.326Z,19776.00
2018-11-01T11:30:41.365Z,19776.00
2018-11-01T11:31:41.279Z,19744.00
2018-11-01T11:32:41.245Z,19552.00
2018-11-01T11:33:41.220Z,19264.00
2018-11-01T11:34:41.197Z,18976.00
2018-11-01T11:35:41.234Z,18624.00
2018-11-01T11:36:41.142Z,18272.00
2018-11-01T11:37:41.114Z,17952.00
2018-11-01T11:38:41.091Z,17696.00
2018-11-01T11:39:41.167Z,17568.00
2018-11-01T11:40:41.045Z,17568.00
2018-11-01T11:41:41.015Z,17632.00
2018-11-01T11:42:40.989Z,17760.00
2018-11-01T11:43:40.963Z,17920.00
2018-11-01T11:44:40.940Z,18112.00
2018-11-01T11:45:40.913Z,18272.00
2018-11-01T11:46:40.894Z,18368.00
2018-11-01T11:47:40.866Z,18432.00
2018-11-01T11:48:40.837Z,18400.00
2018-11-01T11:49:40.809Z,18336.00
2018-11-01T11:50:40.794Z,18240.00
2018-11-01T11:51:40.761Z,18144.00
2018-11-01T11:52:40.735Z,18048.00
2018-11-01T11:53:40.708Z,17920.00
2018-11-01T11:54:40.681Z,17792.00
2018-11-01T11:55:40.655Z,17760.00
2018-11-01T11:56:40.643Z,17760.00
2018-11-01T11:57:40.603Z,17824.00
2018-11-01T11:58:40.577Z,17952.00
2018-11-01T11:59:40.553Z,18080.00
2018-11-01T12:00:40.525Z,18080.00
2018-11-01T12:01:40.499Z,17920.00
2018-11-01T12:02:40.473Z,17728.00
2018-11-01T12:03:40.450Z,17440.00
2018-11-01T12:04:40.426Z,17088.00
2018-11-01T12:05:40.613Z,16592.00
2018-11-01T12:06:40.376Z,16284.00
2018-11-01T12:07:40.346Z,16100.00
2018-11-01T12:08:40.319Z,16028.00
2018-11-01T12:09:40.295Z,16080.00
2018-11-01T12:10:40.265Z,16224.00
2018-11-01T12:11:40.243Z,16412.00
2018-11-01T12:12:40.227Z,16564.00
2018-11-01T12:13:40.192Z,16768.00
2018-11-01T12:14:40.166Z,16864.00
2018-11-01T12:15:40.141Z,16928.00
2018-11-01T12:16:40.115Z,16960.00
2018-11-01T12:17:40.088Z,17024.00
2018-11-01T12:18:40.062Z,17120.00
2018-11-01T12:19:40.035Z,17152.00
2018-11-01T12:20:40.012Z,17184.00
2018-11-01T12:21:39.983Z,17152.00
2018-11-01T12:22:39.957Z,17056.00
2018-11-01T12:23:39.932Z,16960.00
2018-11-01T12:24:39.908Z,16676.00
2018-11-01T12:25:39.882Z,16464.00
2018-11-01T12:26:39.860Z,16220.00
2018-11-01T12:27:39.827Z,15956.00
2018-11-01T12:28:39.931Z,15684.00